sensor_id;sensor_type;location;lat;lon;timestamp;P1;durP1;ratioP1;P2;durP2;ratioP2
76693;SDS011;65625;52.136;5.424;2023-03-05T00:00:26;5.35;;;0.80;;
76693;SDS011;65625;52.136;5.424;2023-03-05T00:02:52;6.97;;;1.20;;
76693;SDS011;65625;52.136;5.424;2023-03-05T00:05:19;7.38;;;1.30;;
76693;SDS011;65625;52.136;5.424;2023-03-05T00:07:45;10.57;;;2.00;;
76693;SDS011;65625;52.136;5.424;2023-03-05T00:10:12;8.45;;;1.13;;
76693;SDS011;65625;52.136;5.424;2023-03-05T00:12:39;7.18;;;1.10;;
76693;SDS011;65625;52.136;5.424;2023-03-05T00:15:05;2.75;;;0.90;;
76693;SDS011;65625;52.136;5.424;2023-03-05T00:17:33;3.72;;;1.45;;
76693;SDS011;65625;52.136;5.424;2023-03-05T00:19:59;3.83;;;1.05;;
76693;SDS011;65625;52.136;5.424;2023-03-05T00:22:27;3.13;;;1.00;;
76693;SDS011;65625;52.136;5.424;2023-03-05T00:24:54;3.33;;;1.00;;
76693;SDS011;65625;52.136;5.424;2023-03-05T00:27:20;5.55;;;1.20;;
76693;SDS011;65625;52.136;5.424;2023-03-05T00:29:47;9.48;;;0.90;;
76693;SDS011;65625;52.136;5.424;2023-03-05T00:32:13;4.82;;;1.10;;
76693;SDS011;65625;52.136;5.424;2023-03-05T00:34:40;3.70;;;0.85;;
76693;SDS011;65625;52.136;5.424;2023-03-05T00:37:06;8.35;;;1.00;;
76693;SDS011;65625;52.136;5.424;2023-03-05T00:39:33;3.80;;;1.00;;
76693;SDS011;65625;52.136;5.424;2023-03-05T00:42:00;3.60;;;1.08;;
76693;SDS011;65625;52.136;5.424;2023-03-05T00:44:26;5.22;;;1.42;;
76693;SDS011;65625;52.136;5.424;2023-03-05T00:46:53;4.78;;;0.98;;
76693;SDS011;65625;52.136;5.424;2023-03-05T00:49:19;11.55;;;1.50;;
76693;SDS011;65625;52.136;5.424;2023-03-05T00:51:46;6.18;;;1.25;;
76693;SDS011;65625;52.136;5.424;2023-03-05T00:54:12;4.20;;;0.90;;
76693;SDS011;65625;52.136;5.424;2023-03-05T00:56:39;2.33;;;0.88;;
76693;SDS011;65625;52.136;5.424;2023-03-05T00:59:05;4.00;;;1.23;;
76693;SDS011;65625;52.136;5.424;2023-03-05T01:01:33;5.65;;;1.52;;
76693;SDS011;65625;52.136;5.424;2023-03-05T01:04:01;8.23;;;1.70;;
76693;SDS011;65625;52.136;5.424;2023-03-05T01:06:28;9.98;;;1.75;;
76693;SDS011;65625;52.136;5.424;2023-03-05T01:08:54;7.43;;;2.13;;
76693;SDS011;65625;52.136;5.424;2023-03-05T01:11:22;5.82;;;1.60;;
76693;SDS011;65625;52.136;5.424;2023-03-05T01:13:48;5.55;;;1.67;;
76693;SDS011;65625;52.136;5.424;2023-03-05T01:16:15;6.47;;;1.25;;
76693;SDS011;65625;52.136;5.424;2023-03-05T01:18:41;4.45;;;1.45;;
76693;SDS011;65625;52.136;5.424;2023-03-05T01:21:08;3.35;;;1.40;;
76693;SDS011;65625;52.136;5.424;2023-03-05T01:23:35;13.02;;;1.83;;
76693;SDS011;65625;52.136;5.424;2023-03-05T01:26:02;10.27;;;1.60;;
76693;SDS011;65625;52.136;5.424;2023-03-05T01:28:29;5.20;;;1.45;;
76693;SDS011;65625;52.136;5.424;2023-03-05T01:30:57;9.60;;;1.65;;
76693;SDS011;65625;52.136;5.424;2023-03-05T01:33:24;5.32;;;1.50;;
76693;SDS011;65625;52.136;5.424;2023-03-05T01:35:50;8.30;;;1.70;;
76693;SDS011;65625;52.136;5.424;2023-03-05T01:38:17;5.20;;;1.20;;
76693;SDS011;65625;52.136;5.424;2023-03-05T01:40:44;7.22;;;1.30;;
76693;SDS011;65625;52.136;5.424;2023-03-05T01:45:37;5.25;;;1.58;;
76693;SDS011;65625;52.136;5.424;2023-03-05T01:48:05;4.35;;;1.25;;
76693;SDS011;65625;52.136;5.424;2023-03-05T01:50:31;7.47;;;1.45;;
76693;SDS011;65625;52.136;5.424;2023-03-05T01:53:00;9.50;;;2.20;;
76693;SDS011;65625;52.136;5.424;2023-03-05T01:55:30;7.50;;;1.27;;
76693;SDS011;65625;52.136;5.424;2023-03-05T01:58:01;6.38;;;1.20;;
76693;SDS011;65625;52.136;5.424;2023-03-05T02:00:33;4.70;;;1.50;;
76693;SDS011;65625;52.136;5.424;2023-03-05T02:03:04;5.18;;;1.35;;
76693;SDS011;65625;52.136;5.424;2023-03-05T02:05:34;6.80;;;1.70;;
76693;SDS011;65625;52.136;5.424;2023-03-05T02:08:04;4.85;;;1.20;;
76693;SDS011;65625;52.136;5.424;2023-03-05T02:10:38;5.93;;;1.60;;
76693;SDS011;65625;52.136;5.424;2023-03-05T02:13:08;13.93;;;1.80;;
76693;SDS011;65625;52.136;5.424;2023-03-05T02:15:36;5.90;;;1.50;;
76693;SDS011;65625;52.136;5.424;2023-03-05T02:18:04;7.00;;;1.42;;
76693;SDS011;65625;52.136;5.424;2023-03-05T02:23:15;4.35;;;1.13;;
76693;SDS011;65625;52.136;5.424;2023-03-05T02:25:43;6.35;;;1.88;;
76693;SDS011;65625;52.136;5.424;2023-03-05T02:31:16;7.30;;;2.10;;
76693;SDS011;65625;52.136;5.424;2023-03-05T02:33:47;7.50;;;1.70;;
76693;SDS011;65625;52.136;5.424;2023-03-05T02:36:15;5.22;;;1.60;;
76693;SDS011;65625;52.136;5.424;2023-03-05T02:38:43;7.55;;;1.55;;
76693;SDS011;65625;52.136;5.424;2023-03-05T02:41:11;8.40;;;1.85;;
76693;SDS011;65625;52.136;5.424;2023-03-05T02:43:38;4.82;;;1.67;;
76693;SDS011;65625;52.136;5.424;2023-03-05T02:46:05;5.13;;;1.55;;
76693;SDS011;65625;52.136;5.424;2023-03-05T02:48:32;7.10;;;2.05;;
76693;SDS011;65625;52.136;5.424;2023-03-05T02:50:59;7.10;;;2.25;;
76693;SDS011;65625;52.136;5.424;2023-03-05T02:53:28;5.97;;;1.98;;
76693;SDS011;65625;52.136;5.424;2023-03-05T02:55:55;6.50;;;1.90;;
76693;SDS011;65625;52.136;5.424;2023-03-05T02:58:21;8.05;;;1.75;;
76693;SDS011;65625;52.136;5.424;2023-03-05T03:00:48;5.28;;;1.52;;
76693;SDS011;65625;52.136;5.424;2023-03-05T03:03:14;6.93;;;1.60;;
76693;SDS011;65625;52.136;5.424;2023-03-05T03:05:41;8.98;;;1.85;;
76693;SDS011;65625;52.136;5.424;2023-03-05T03:08:08;6.93;;;1.73;;
76693;SDS011;65625;52.136;5.424;2023-03-05T03:10:35;6.22;;;1.67;;
76693;SDS011;65625;52.136;5.424;2023-03-05T03:13:02;5.38;;;1.40;;
76693;SDS011;65625;52.136;5.424;2023-03-05T03:15:28;6.47;;;2.10;;
76693;SDS011;65625;52.136;5.424;2023-03-05T03:17:55;5.07;;;1.63;;
76693;SDS011;65625;52.136;5.424;2023-03-05T03:20:22;8.15;;;1.92;;
76693;SDS011;65625;52.136;5.424;2023-03-05T03:22:49;6.20;;;1.70;;
76693;SDS011;65625;52.136;5.424;2023-03-05T03:25:17;4.97;;;1.65;;
76693;SDS011;65625;52.136;5.424;2023-03-05T03:27:46;4.95;;;1.42;;
76693;SDS011;65625;52.136;5.424;2023-03-05T03:30:13;6.53;;;1.52;;
76693;SDS011;65625;52.136;5.424;2023-03-05T03:32:40;6.78;;;1.70;;
76693;SDS011;65625;52.136;5.424;2023-03-05T03:35:06;4.95;;;1.38;;
76693;SDS011;65625;52.136;5.424;2023-03-05T03:37:34;5.45;;;1.63;;
76693;SDS011;65625;52.136;5.424;2023-03-05T03:40:00;4.07;;;1.58;;
76693;SDS011;65625;52.136;5.424;2023-03-05T03:42:27;10.63;;;2.45;;
76693;SDS011;65625;52.136;5.424;2023-03-05T03:44:53;8.50;;;1.60;;
76693;SDS011;65625;52.136;5.424;2023-03-05T03:47:20;4.32;;;1.38;;
76693;SDS011;65625;52.136;5.424;2023-03-05T03:49:46;5.38;;;2.03;;
76693;SDS011;65625;52.136;5.424;2023-03-05T03:52:13;5.25;;;1.42;;
76693;SDS011;65625;52.136;5.424;2023-03-05T03:54:39;5.47;;;1.58;;
76693;SDS011;65625;52.136;5.424;2023-03-05T03:57:06;4.10;;;1.10;;
76693;SDS011;65625;52.136;5.424;2023-03-05T03:59:32;2.92;;;1.17;;
76693;SDS011;65625;52.136;5.424;2023-03-05T04:01:59;5.10;;;1.60;;
76693;SDS011;65625;52.136;5.424;2023-03-05T04:04:25;4.75;;;1.25;;
76693;SDS011;65625;52.136;5.424;2023-03-05T04:06:54;6.20;;;1.27;;
76693;SDS011;65625;52.136;5.424;2023-03-05T04:09:21;8.18;;;1.63;;
76693;SDS011;65625;52.136;5.424;2023-03-05T04:11:48;4.95;;;1.20;;
76693;SDS011;65625;52.136;5.424;2023-03-05T04:14:14;5.10;;;1.30;;
76693;SDS011;65625;52.136;5.424;2023-03-05T04:16:41;4.47;;;1.02;;
76693;SDS011;65625;52.136;5.424;2023-03-05T04:19:07;3.63;;;0.98;;
76693;SDS011;65625;52.136;5.424;2023-03-05T04:21:34;7.57;;;1.20;;
76693;SDS011;65625;52.136;5.424;2023-03-05T04:24:00;5.60;;;1.50;;
76693;SDS011;65625;52.136;5.424;2023-03-05T04:26:27;3.35;;;0.88;;
76693;SDS011;65625;52.136;5.424;2023-03-05T04:28:53;6.10;;;1.20;;
76693;SDS011;65625;52.136;5.424;2023-03-05T04:31:20;3.10;;;0.80;;
76693;SDS011;65625;52.136;5.424;2023-03-05T04:33:46;5.85;;;1.40;;
76693;SDS011;65625;52.136;5.424;2023-03-05T04:36:13;5.38;;;1.40;;
76693;SDS011;65625;52.136;5.424;2023-03-05T04:38:39;3.00;;;1.15;;
76693;SDS011;65625;52.136;5.424;2023-03-05T04:41:06;4.15;;;0.80;;
76693;SDS011;65625;52.136;5.424;2023-03-05T04:43:32;5.53;;;1.42;;
76693;SDS011;65625;52.136;5.424;2023-03-05T04:45:59;6.38;;;1.30;;
76693;SDS011;65625;52.136;5.424;2023-03-05T04:48:26;4.53;;;0.80;;
76693;SDS011;65625;52.136;5.424;2023-03-05T04:50:52;3.03;;;1.10;;
76693;SDS011;65625;52.136;5.424;2023-03-05T04:53:19;2.67;;;0.90;;
76693;SDS011;65625;52.136;5.424;2023-03-05T04:55:45;4.45;;;1.10;;
76693;SDS011;65625;52.136;5.424;2023-03-05T04:58:16;5.47;;;0.88;;
76693;SDS011;65625;52.136;5.424;2023-03-05T05:00:43;5.65;;;1.13;;
76693;SDS011;65625;52.136;5.424;2023-03-05T05:03:09;7.22;;;1.13;;
76693;SDS011;65625;52.136;5.424;2023-03-05T05:05:36;6.57;;;1.10;;
76693;SDS011;65625;52.136;5.424;2023-03-05T05:08:03;5.47;;;1.17;;
76693;SDS011;65625;52.136;5.424;2023-03-05T05:10:29;5.57;;;1.30;;
76693;SDS011;65625;52.136;5.424;2023-03-05T05:12:56;3.35;;;0.88;;
76693;SDS011;65625;52.136;5.424;2023-03-05T05:15:23;6.05;;;0.95;;
76693;SDS011;65625;52.136;5.424;2023-03-05T05:17:50;3.70;;;0.85;;
76693;SDS011;65625;52.136;5.424;2023-03-05T05:20:16;2.60;;;0.63;;
76693;SDS011;65625;52.136;5.424;2023-03-05T05:22:43;6.30;;;0.95;;
76693;SDS011;65625;52.136;5.424;2023-03-05T05:25:10;3.30;;;0.63;;
76693;SDS011;65625;52.136;5.424;2023-03-05T05:27:37;2.55;;;0.57;;
76693;SDS011;65625;52.136;5.424;2023-03-05T05:30:05;4.25;;;0.90;;
76693;SDS011;65625;52.136;5.424;2023-03-05T05:32:33;1.98;;;0.60;;
76693;SDS011;65625;52.136;5.424;2023-03-05T05:35:00;7.68;;;0.95;;
76693;SDS011;65625;52.136;5.424;2023-03-05T05:37:26;2.03;;;0.73;;
76693;SDS011;65625;52.136;5.424;2023-03-05T05:39:54;3.85;;;0.90;;
76693;SDS011;65625;52.136;5.424;2023-03-05T05:42:22;2.00;;;0.80;;
76693;SDS011;65625;52.136;5.424;2023-03-05T05:44:50;5.28;;;0.98;;
76693;SDS011;65625;52.136;5.424;2023-03-05T05:47:16;3.85;;;0.98;;
76693;SDS011;65625;52.136;5.424;2023-03-05T05:49:44;3.22;;;0.93;;
76693;SDS011;65625;52.136;5.424;2023-03-05T05:52:10;3.88;;;0.90;;
76693;SDS011;65625;52.136;5.424;2023-03-05T05:54:37;6.78;;;1.00;;
76693;SDS011;65625;52.136;5.424;2023-03-05T05:57:04;4.88;;;0.90;;
76693;SDS011;65625;52.136;5.424;2023-03-05T05:59:31;4.85;;;1.00;;
76693;SDS011;65625;52.136;5.424;2023-03-05T06:01:58;4.65;;;1.02;;
76693;SDS011;65625;52.136;5.424;2023-03-05T06:04:24;2.80;;;1.27;;
76693;SDS011;65625;52.136;5.424;2023-03-05T06:06:51;3.88;;;0.95;;
76693;SDS011;65625;52.136;5.424;2023-03-05T06:09:17;7.63;;;1.30;;
76693;SDS011;65625;52.136;5.424;2023-03-05T06:11:44;3.75;;;0.98;;
76693;SDS011;65625;52.136;5.424;2023-03-05T06:14:11;2.78;;;0.95;;
76693;SDS011;65625;52.136;5.424;2023-03-05T06:16:38;2.60;;;0.90;;
76693;SDS011;65625;52.136;5.424;2023-03-05T06:19:05;3.58;;;0.95;;
76693;SDS011;65625;52.136;5.424;2023-03-05T06:21:33;3.35;;;0.90;;
76693;SDS011;65625;52.136;5.424;2023-03-05T06:24:00;2.83;;;1.05;;
76693;SDS011;65625;52.136;5.424;2023-03-05T06:26:26;5.10;;;1.10;;
76693;SDS011;65625;52.136;5.424;2023-03-05T06:28:53;2.85;;;1.00;;
76693;SDS011;65625;52.136;5.424;2023-03-05T06:31:21;5.45;;;1.13;;
76693;SDS011;65625;52.136;5.424;2023-03-05T06:33:51;3.83;;;1.02;;
76693;SDS011;65625;52.136;5.424;2023-03-05T06:36:20;3.03;;;1.20;;
76693;SDS011;65625;52.136;5.424;2023-03-05T06:38:47;5.30;;;1.38;;
76693;SDS011;65625;52.136;5.424;2023-03-05T06:41:15;2.72;;;1.02;;
76693;SDS011;65625;52.136;5.424;2023-03-05T06:43:44;3.00;;;1.38;;
76693;SDS011;65625;52.136;5.424;2023-03-05T06:48:47;4.53;;;1.08;;
76693;SDS011;65625;52.136;5.424;2023-03-05T06:51:15;3.17;;;1.05;;
76693;SDS011;65625;52.136;5.424;2023-03-05T06:53:43;4.43;;;1.00;;
76693;SDS011;65625;52.136;5.424;2023-03-05T06:56:12;3.42;;;1.15;;
76693;SDS011;65625;52.136;5.424;2023-03-05T06:58:42;4.40;;;1.60;;
76693;SDS011;65625;52.136;5.424;2023-03-05T07:01:11;2.50;;;1.27;;
76693;SDS011;65625;52.136;5.424;2023-03-05T07:03:38;5.88;;;1.38;;
76693;SDS011;65625;52.136;5.424;2023-03-05T07:06:06;2.90;;;1.02;;
76693;SDS011;65625;52.136;5.424;2023-03-05T07:08:35;10.20;;;1.30;;
76693;SDS011;65625;52.136;5.424;2023-03-05T07:11:02;3.40;;;1.55;;
76693;SDS011;65625;52.136;5.424;2023-03-05T07:13:29;5.30;;;1.30;;
76693;SDS011;65625;52.136;5.424;2023-03-05T07:15:55;2.35;;;0.90;;
76693;SDS011;65625;52.136;5.424;2023-03-05T07:18:22;3.20;;;1.27;;
76693;SDS011;65625;52.136;5.424;2023-03-05T07:20:49;4.38;;;1.20;;
76693;SDS011;65625;52.136;5.424;2023-03-05T07:23:15;2.70;;;1.00;;
76693;SDS011;65625;52.136;5.424;2023-03-05T07:25:42;2.95;;;1.17;;
76693;SDS011;65625;52.136;5.424;2023-03-05T07:28:09;5.07;;;1.35;;
76693;SDS011;65625;52.136;5.424;2023-03-05T07:30:36;4.95;;;1.00;;
76693;SDS011;65625;52.136;5.424;2023-03-05T07:33:02;1.85;;;0.82;;
76693;SDS011;65625;52.136;5.424;2023-03-05T07:35:29;4.70;;;0.88;;
76693;SDS011;65625;52.136;5.424;2023-03-05T07:37:55;3.90;;;1.00;;
76693;SDS011;65625;52.136;5.424;2023-03-05T07:40:22;1.90;;;0.70;;
76693;SDS011;65625;52.136;5.424;2023-03-05T07:42:49;4.35;;;0.88;;
76693;SDS011;65625;52.136;5.424;2023-03-05T07:45:25;3.22;;;0.90;;
76693;SDS011;65625;52.136;5.424;2023-03-05T07:47:52;3.50;;;1.00;;
76693;SDS011;65625;52.136;5.424;2023-03-05T07:50:18;2.45;;;0.40;;
76693;SDS011;65625;52.136;5.424;2023-03-05T07:52:45;4.30;;;0.75;;
76693;SDS011;65625;52.136;5.424;2023-03-05T07:55:11;1.65;;;0.50;;
76693;SDS011;65625;52.136;5.424;2023-03-05T07:57:38;2.00;;;0.65;;
76693;SDS011;65625;52.136;5.424;2023-03-05T08:00:05;2.67;;;0.75;;
76693;SDS011;65625;52.136;5.424;2023-03-05T08:02:36;4.13;;;0.80;;
76693;SDS011;65625;52.136;5.424;2023-03-05T08:05:03;1.77;;;0.75;;
76693;SDS011;65625;52.136;5.424;2023-03-05T08:07:30;2.88;;;0.90;;
76693;SDS011;65625;52.136;5.424;2023-03-05T08:09:56;2.03;;;0.68;;
76693;SDS011;65625;52.136;5.424;2023-03-05T08:12:23;3.97;;;0.90;;
76693;SDS011;65625;52.136;5.424;2023-03-05T08:14:49;2.20;;;0.52;;
76693;SDS011;65625;52.136;5.424;2023-03-05T08:17:16;3.63;;;0.80;;
76693;SDS011;65625;52.136;5.424;2023-03-05T08:19:43;1.65;;;0.70;;
76693;SDS011;65625;52.136;5.424;2023-03-05T08:22:09;2.95;;;0.85;;
76693;SDS011;65625;52.136;5.424;2023-03-05T08:24:36;2.65;;;0.60;;
76693;SDS011;65625;52.136;5.424;2023-03-05T08:27:02;1.75;;;0.60;;
76693;SDS011;65625;52.136;5.424;2023-03-05T08:29:29;1.95;;;0.80;;
76693;SDS011;65625;52.136;5.424;2023-03-05T08:31:56;4.20;;;0.82;;
76693;SDS011;65625;52.136;5.424;2023-03-05T08:34:22;3.08;;;0.80;;
76693;SDS011;65625;52.136;5.424;2023-03-05T08:36:48;2.88;;;0.85;;
76693;SDS011;65625;52.136;5.424;2023-03-05T08:39:15;3.92;;;0.73;;
76693;SDS011;65625;52.136;5.424;2023-03-05T08:41:42;4.18;;;1.00;;
76693;SDS011;65625;52.136;5.424;2023-03-05T08:44:09;2.78;;;0.80;;
76693;SDS011;65625;52.136;5.424;2023-03-05T08:46:37;3.05;;;0.70;;
76693;SDS011;65625;52.136;5.424;2023-03-05T08:49:04;2.00;;;0.73;;
76693;SDS011;65625;52.136;5.424;2023-03-05T08:51:32;2.17;;;1.00;;
76693;SDS011;65625;52.136;5.424;2023-03-05T08:54:01;3.10;;;1.00;;
76693;SDS011;65625;52.136;5.424;2023-03-05T08:56:28;1.77;;;0.73;;
76693;SDS011;65625;52.136;5.424;2023-03-05T08:58:56;2.75;;;0.90;;
76693;SDS011;65625;52.136;5.424;2023-03-05T09:01:23;3.10;;;0.93;;
76693;SDS011;65625;52.136;5.424;2023-03-05T09:03:50;2.97;;;0.90;;
76693;SDS011;65625;52.136;5.424;2023-03-05T09:06:16;2.28;;;1.00;;
76693;SDS011;65625;52.136;5.424;2023-03-05T09:08:43;2.17;;;0.80;;
76693;SDS011;65625;52.136;5.424;2023-03-05T09:11:10;2.42;;;1.00;;
76693;SDS011;65625;52.136;5.424;2023-03-05T09:13:39;4.18;;;1.00;;
76693;SDS011;65625;52.136;5.424;2023-03-05T09:16:06;3.17;;;0.90;;
76693;SDS011;65625;52.136;5.424;2023-03-05T09:18:35;2.83;;;1.00;;
76693;SDS011;65625;52.136;5.424;2023-03-05T09:21:03;3.53;;;1.10;;
76693;SDS011;65625;52.136;5.424;2023-03-05T09:23:30;2.47;;;0.80;;
76693;SDS011;65625;52.136;5.424;2023-03-05T09:25:57;2.90;;;0.85;;
76693;SDS011;65625;52.136;5.424;2023-03-05T09:28:23;2.10;;;0.85;;
76693;SDS011;65625;52.136;5.424;2023-03-05T09:30:50;4.22;;;0.93;;
76693;SDS011;65625;52.136;5.424;2023-03-05T09:33:16;3.30;;;0.95;;
76693;SDS011;65625;52.136;5.424;2023-03-05T09:35:43;2.85;;;0.85;;
76693;SDS011;65625;52.136;5.424;2023-03-05T09:38:09;2.95;;;0.70;;
76693;SDS011;65625;52.136;5.424;2023-03-05T09:46:16;2.75;;;0.80;;
76693;SDS011;65625;52.136;5.424;2023-03-05T09:51:41;3.25;;;0.90;;
76693;SDS011;65625;52.136;5.424;2023-03-05T09:54:13;2.70;;;0.70;;
76693;SDS011;65625;52.136;5.424;2023-03-05T09:56:50;2.28;;;0.90;;
76693;SDS011;65625;52.136;5.424;2023-03-05T09:59:27;3.53;;;0.93;;
76693;SDS011;65625;52.136;5.424;2023-03-05T10:02:02;1.58;;;0.68;;
76693;SDS011;65625;52.136;5.424;2023-03-05T10:04:40;3.33;;;1.02;;
76693;SDS011;65625;52.136;5.424;2023-03-05T10:07:30;2.70;;;0.82;;
76693;SDS011;65625;52.136;5.424;2023-03-05T10:09:59;2.35;;;0.82;;
76693;SDS011;65625;52.136;5.424;2023-03-05T10:12:39;2.28;;;0.95;;
76693;SDS011;65625;52.136;5.424;2023-03-05T10:21:03;2.83;;;0.73;;
76693;SDS011;65625;52.136;5.424;2023-03-05T10:37:37;2.83;;;0.57;;
76693;SDS011;65625;52.136;5.424;2023-03-05T10:43:29;1.83;;;0.60;;
76693;SDS011;65625;52.136;5.424;2023-03-05T10:46:18;2.88;;;0.60;;
76693;SDS011;65625;52.136;5.424;2023-03-05T10:48:49;3.10;;;0.65;;
76693;SDS011;65625;52.136;5.424;2023-03-05T10:51:32;1.27;;;0.45;;
76693;SDS011;65625;52.136;5.424;2023-03-05T10:54:39;1.58;;;0.68;;
76693;SDS011;65625;52.136;5.424;2023-03-05T10:59:38;4.38;;;0.77;;
76693;SDS011;65625;52.136;5.424;2023-03-05T11:02:11;1.50;;;0.52;;
76693;SDS011;65625;52.136;5.424;2023-03-05T11:04:38;3.65;;;0.70;;
76693;SDS011;65625;52.136;5.424;2023-03-05T11:09:41;1.50;;;0.52;;
76693;SDS011;65625;52.136;5.424;2023-03-05T11:14:46;2.50;;;0.60;;
76693;SDS011;65625;52.136;5.424;2023-03-05T11:28:25;3.55;;;0.73;;
76693;SDS011;65625;52.136;5.424;2023-03-05T11:31:05;3.05;;;0.55;;
76693;SDS011;65625;52.136;5.424;2023-03-05T11:33:57;1.27;;;0.32;;
76693;SDS011;65625;52.136;5.424;2023-03-05T11:37:18;1.85;;;0.60;;
76693;SDS011;65625;52.136;5.424;2023-03-05T11:39:16;1.85;;;0.50;;
76693;SDS011;65625;52.136;5.424;2023-03-05T11:44:20;7.13;;;0.85;;
76693;SDS011;65625;52.136;5.424;2023-03-05T11:46:51;1.75;;;0.80;;
76693;SDS011;65625;52.136;5.424;2023-03-05T11:49:25;3.00;;;0.65;;
76693;SDS011;65625;52.136;5.424;2023-03-05T11:52:14;2.50;;;0.70;;
76693;SDS011;65625;52.136;5.424;2023-03-05T11:57:23;3.58;;;0.60;;
76693;SDS011;65625;52.136;5.424;2023-03-05T11:59:51;3.45;;;0.60;;
76693;SDS011;65625;52.136;5.424;2023-03-05T12:02:24;1.77;;;0.70;;
76693;SDS011;65625;52.136;5.424;2023-03-05T12:04:52;4.07;;;0.45;;
76693;SDS011;65625;52.136;5.424;2023-03-05T12:07:23;1.20;;;0.35;;
76693;SDS011;65625;52.136;5.424;2023-03-05T12:09:59;1.65;;;0.52;;
76693;SDS011;65625;52.136;5.424;2023-03-05T12:15:27;3.90;;;0.68;;
76693;SDS011;65625;52.136;5.424;2023-03-05T12:18:27;1.63;;;0.60;;
76693;SDS011;65625;52.136;5.424;2023-03-05T12:23:55;1.08;;;0.47;;
76693;SDS011;65625;52.136;5.424;2023-03-05T12:34:57;10.65;;;0.85;;
76693;SDS011;65625;52.136;5.424;2023-03-05T12:47:34;2.97;;;0.90;;
76693;SDS011;65625;52.136;5.424;2023-03-05T12:50:44;4.68;;;0.57;;
76693;SDS011;65625;52.136;5.424;2023-03-05T12:55:23;1.70;;;0.63;;
76693;SDS011;65625;52.136;5.424;2023-03-05T12:58:53;2.55;;;0.82;;
76693;SDS011;65625;52.136;5.424;2023-03-05T13:01:26;2.58;;;0.55;;
76693;SDS011;65625;52.136;5.424;2023-03-05T13:03:55;2.40;;;0.50;;
76693;SDS011;65625;52.136;5.424;2023-03-05T13:06:27;3.70;;;0.57;;
76693;SDS011;65625;52.136;5.424;2023-03-05T13:09:00;1.88;;;0.52;;
76693;SDS011;65625;52.136;5.424;2023-03-05T13:11:35;1.38;;;0.30;;
76693;SDS011;65625;52.136;5.424;2023-03-05T13:14:04;2.53;;;0.45;;
76693;SDS011;65625;52.136;5.424;2023-03-05T13:16:53;3.60;;;0.50;;
76693;SDS011;65625;52.136;5.424;2023-03-05T13:19:20;2.60;;;0.50;;
76693;SDS011;65625;52.136;5.424;2023-03-05T13:22:00;2.33;;;0.30;;
76693;SDS011;65625;52.136;5.424;2023-03-05T13:29:25;1.48;;;0.40;;
76693;SDS011;65625;52.136;5.424;2023-03-05T13:31:54;2.58;;;0.43;;
76693;SDS011;65625;52.136;5.424;2023-03-05T13:34:29;2.85;;;0.43;;
76693;SDS011;65625;52.136;5.424;2023-03-05T13:37:18;2.17;;;0.65;;
76693;SDS011;65625;52.136;5.424;2023-03-05T13:42:25;2.25;;;0.57;;
76693;SDS011;65625;52.136;5.424;2023-03-05T13:45:05;0.63;;;0.28;;
76693;SDS011;65625;52.136;5.424;2023-03-05T13:47:52;5.40;;;0.60;;
76693;SDS011;65625;52.136;5.424;2023-03-05T13:50:30;2.25;;;0.50;;
76693;SDS011;65625;52.136;5.424;2023-03-05T13:53:13;2.33;;;0.60;;
76693;SDS011;65625;52.136;5.424;2023-03-05T13:55:49;4.22;;;0.93;;
76693;SDS011;65625;52.136;5.424;2023-03-05T14:01:17;2.28;;;0.65;;
76693;SDS011;65625;52.136;5.424;2023-03-05T14:04:02;1.42;;;0.75;;
76693;SDS011;65625;52.136;5.424;2023-03-05T14:06:35;1.90;;;0.70;;
76693;SDS011;65625;52.136;5.424;2023-03-05T14:09:16;2.30;;;0.80;;
76693;SDS011;65625;52.136;5.424;2023-03-05T14:14:24;2.78;;;1.00;;
76693;SDS011;65625;52.136;5.424;2023-03-05T14:19:35;5.13;;;1.00;;
76693;SDS011;65625;52.136;5.424;2023-03-05T14:22:04;2.03;;;0.75;;
76693;SDS011;65625;52.136;5.424;2023-03-05T14:24:31;3.55;;;1.00;;
76693;SDS011;65625;52.136;5.424;2023-03-05T14:27:00;2.67;;;0.75;;
76693;SDS011;65625;52.136;5.424;2023-03-05T14:29:33;1.25;;;0.68;;
76693;SDS011;65625;52.136;5.424;2023-03-05T14:32:03;3.63;;;0.70;;
76693;SDS011;65625;52.136;5.424;2023-03-05T14:34:42;4.00;;;0.70;;
76693;SDS011;65625;52.136;5.424;2023-03-05T14:37:17;2.63;;;0.70;;
76693;SDS011;65625;52.136;5.424;2023-03-05T14:39:49;1.58;;;0.70;;
76693;SDS011;65625;52.136;5.424;2023-03-05T14:45:19;3.13;;;0.90;;
76693;SDS011;65625;52.136;5.424;2023-03-05T14:47:51;3.67;;;0.90;;
76693;SDS011;65625;52.136;5.424;2023-03-05T14:50:23;2.05;;;0.70;;
76693;SDS011;65625;52.136;5.424;2023-03-05T14:53:17;4.03;;;0.85;;
76693;SDS011;65625;52.136;5.424;2023-03-05T14:55:47;7.18;;;1.05;;
76693;SDS011;65625;52.136;5.424;2023-03-05T14:58:18;3.47;;;1.00;;
76693;SDS011;65625;52.136;5.424;2023-03-05T15:00:47;3.92;;;1.50;;
76693;SDS011;65625;52.136;5.424;2023-03-05T15:03:17;4.35;;;1.17;;
76693;SDS011;65625;52.136;5.424;2023-03-05T15:05:46;5.90;;;1.13;;
76693;SDS011;65625;52.136;5.424;2023-03-05T15:08:16;6.80;;;1.40;;
76693;SDS011;65625;52.136;5.424;2023-03-05T15:10:48;4.47;;;2.00;;
76693;SDS011;65625;52.136;5.424;2023-03-05T15:13:15;5.40;;;1.95;;
76693;SDS011;65625;52.136;5.424;2023-03-05T15:15:42;2.45;;;1.17;;
76693;SDS011;65625;52.136;5.424;2023-03-05T15:18:13;3.58;;;1.20;;
76693;SDS011;65625;52.136;5.424;2023-03-05T15:20:42;3.08;;;1.30;;
76693;SDS011;65625;52.136;5.424;2023-03-05T15:23:09;5.72;;;1.50;;
76693;SDS011;65625;52.136;5.424;2023-03-05T15:25:38;1.88;;;1.10;;
76693;SDS011;65625;52.136;5.424;2023-03-05T15:28:04;3.38;;;1.10;;
76693;SDS011;65625;52.136;5.424;2023-03-05T15:30:32;1.80;;;1.00;;
76693;SDS011;65625;52.136;5.424;2023-03-05T15:33:02;2.47;;;1.05;;
76693;SDS011;65625;52.136;5.424;2023-03-05T15:35:31;3.10;;;1.23;;
76693;SDS011;65625;52.136;5.424;2023-03-05T15:37:58;2.83;;;1.20;;
76693;SDS011;65625;52.136;5.424;2023-03-05T15:40:24;2.75;;;1.20;;
76693;SDS011;65625;52.136;5.424;2023-03-05T15:42:56;3.13;;;1.00;;
76693;SDS011;65625;52.136;5.424;2023-03-05T15:45:24;2.55;;;1.20;;
76693;SDS011;65625;52.136;5.424;2023-03-05T15:47:51;2.80;;;1.50;;
76693;SDS011;65625;52.136;5.424;2023-03-05T15:50:19;2.70;;;1.20;;
76693;SDS011;65625;52.136;5.424;2023-03-05T15:52:46;2.75;;;1.10;;
76693;SDS011;65625;52.136;5.424;2023-03-05T15:55:13;3.85;;;1.25;;
76693;SDS011;65625;52.136;5.424;2023-03-05T15:57:43;2.75;;;0.90;;
76693;SDS011;65625;52.136;5.424;2023-03-05T16:00:12;3.90;;;1.13;;
76693;SDS011;65625;52.136;5.424;2023-03-05T16:02:39;3.65;;;1.38;;
76693;SDS011;65625;52.136;5.424;2023-03-05T16:05:06;8.40;;;1.20;;
76693;SDS011;65625;52.136;5.424;2023-03-05T16:07:34;3.90;;;1.50;;
76693;SDS011;65625;52.136;5.424;2023-03-05T16:10:04;6.65;;;2.20;;
76693;SDS011;65625;52.136;5.424;2023-03-05T16:12:34;5.47;;;1.70;;
76693;SDS011;65625;52.136;5.424;2023-03-05T16:15:06;4.18;;;1.63;;
76693;SDS011;65625;52.136;5.424;2023-03-05T16:17:34;4.75;;;1.83;;
76693;SDS011;65625;52.136;5.424;2023-03-05T16:20:02;4.47;;;1.70;;
76693;SDS011;65625;52.136;5.424;2023-03-05T16:22:29;4.13;;;1.60;;
76693;SDS011;65625;52.136;5.424;2023-03-05T16:24:56;6.20;;;2.60;;
76693;SDS011;65625;52.136;5.424;2023-03-05T16:27:23;6.53;;;1.60;;
76693;SDS011;65625;52.136;5.424;2023-03-05T16:29:50;5.88;;;1.88;;
76693;SDS011;65625;52.136;5.424;2023-03-05T16:32:16;4.88;;;1.50;;
76693;SDS011;65625;52.136;5.424;2023-03-05T16:34:43;1.83;;;1.10;;
76693;SDS011;65625;52.136;5.424;2023-03-05T16:37:09;3.97;;;1.10;;
76693;SDS011;65625;52.136;5.424;2023-03-05T16:39:42;2.10;;;0.80;;
76693;SDS011;65625;52.136;5.424;2023-03-05T16:42:09;2.70;;;1.08;;
76693;SDS011;65625;52.136;5.424;2023-03-05T16:44:36;2.78;;;0.95;;
76693;SDS011;65625;52.136;5.424;2023-03-05T16:47:02;3.67;;;1.08;;
76693;SDS011;65625;52.136;5.424;2023-03-05T16:49:29;3.15;;;1.10;;
76693;SDS011;65625;52.136;5.424;2023-03-05T16:51:56;2.58;;;0.85;;